createdAt,value
2022-11-16T00:00:30.094Z,61.35
2022-11-16T00:03:32.629Z,61.29
2022-11-16T00:06:34.190Z,61.33
2022-11-16T00:09:36.091Z,61.41
2022-11-16T00:12:38.692Z,61.34
2022-11-16T00:15:40.221Z,61.32
2022-11-16T00:18:42.032Z,61.29
2022-11-16T00:21:43.679Z,61.33
2022-11-16T00:24:45.220Z,61.31
2022-11-16T00:27:46.750Z,61.36
2022-11-16T00:30:48.287Z,61.36
2022-11-16T00:33:50.360Z,61.34
2022-11-16T00:36:52.184Z,61.30
2022-11-16T00:39:53.740Z,61.30
2022-11-16T00:42:55.263Z,61.23
2022-11-16T00:45:56.860Z,61.31
2022-11-16T00:48:58.460Z,61.43
2022-11-16T00:52:00.013Z,61.25
2022-11-16T00:55:01.682Z,61.35
2022-11-16T00:58:03.332Z,61.43
2022-11-16T01:01:07.385Z,61.31
2022-11-16T01:04:08.975Z,61.32
2022-11-16T01:07:10.543Z,61.33
2022-11-16T01:10:15.987Z,61.42
2022-11-16T01:13:17.515Z,61.25
2022-11-16T01:16:20.732Z,61.47
2022-11-16T01:19:22.341Z,61.32
2022-11-16T01:22:23.943Z,61.37
2022-11-16T01:25:25.499Z,61.42
2022-11-16T01:28:28.510Z,61.37
2022-11-16T01:31:31.417Z,61.49
2022-11-16T01:34:33.127Z,61.37
2022-11-16T01:37:34.970Z,61.30
2022-11-16T01:40:37.542Z,61.48
2022-11-16T01:44:27.259Z,61.37
2022-11-16T01:47:28.908Z,61.20
2022-11-16T01:50:30.654Z,61.41
2022-11-16T01:53:32.251Z,61.23
2022-11-16T01:56:36.600Z,61.28
2022-11-16T01:59:39.246Z,61.18
2022-11-16T02:02:41.525Z,61.32
2022-11-16T02:05:56.912Z,61.19
2022-11-16T02:09:49.881Z,61.26
2022-11-16T02:13:13.237Z,61.22
2022-11-16T02:16:40.248Z,61.30
2022-11-16T02:19:44.826Z,61.25
2022-11-16T02:23:17.467Z,61.30
2022-11-16T02:26:22.040Z,61.19
2022-11-16T02:29:40.182Z,61.28
2022-11-16T02:32:47.779Z,61.16
2022-11-16T02:35:52.481Z,61.21
2022-11-16T02:39:13.683Z,61.19
2022-11-16T02:42:22.239Z,61.27
2022-11-16T02:45:27.941Z,61.20
2022-11-16T02:48:35.860Z,61.24
2022-11-16T02:51:40.017Z,61.26
2022-11-16T02:54:41.642Z,61.10
2022-11-16T02:57:53.647Z,61.17
2022-11-16T03:01:03.357Z,61.06
2022-11-16T03:04:13.888Z,61.04
2022-11-16T03:07:18.819Z,61.24
2022-11-16T03:10:40.147Z,61.11
2022-11-16T03:13:42.501Z,61.11
2022-11-16T03:16:48.784Z,61.15
2022-11-16T03:19:56.365Z,61.30
2022-11-16T03:23:01.924Z,61.32
2022-11-16T03:26:08.468Z,61.24
2022-11-16T03:29:47.032Z,61.39
2022-11-16T03:33:02.128Z,61.27
2022-11-16T03:36:21.358Z,61.31
2022-11-16T03:39:29.146Z,61.35
2022-11-16T03:42:31.868Z,61.51
2022-11-16T03:45:33.960Z,61.33
2022-11-16T03:48:37.076Z,61.37
2022-11-16T03:51:41.983Z,61.49
2022-11-16T03:54:43.923Z,61.52
2022-11-16T03:57:45.516Z,61.64
2022-11-16T04:00:47.145Z,61.49
2022-11-16T04:03:48.791Z,61.73
2022-11-16T04:07:08.812Z,61.48
2022-11-16T04:10:29.481Z,61.49
2022-11-16T04:13:52.576Z,61.84
2022-11-16T04:17:12.928Z,61.84
2022-11-16T04:20:34.063Z,61.77
2022-11-16T04:23:54.012Z,61.92
2022-11-16T04:27:19.464Z,61.86
2022-11-16T04:30:21.152Z,61.82
2022-11-16T04:33:41.747Z,61.80
2022-11-16T04:37:01.732Z,61.76
2022-11-16T04:40:04.392Z,61.98
2022-11-16T04:43:06.562Z,61.92
2022-11-16T04:46:26.435Z,62.00
2022-11-16T04:49:28.202Z,62.18
2022-11-16T04:52:29.751Z,62.25
2022-11-16T04:55:31.427Z,62.15
2022-11-16T04:58:33.291Z,62.34
2022-11-16T05:01:53.823Z,62.13
2022-11-16T05:04:55.559Z,62.11
2022-11-16T05:07:57.116Z,62.16
2022-11-16T05:10:58.658Z,62.35
2022-11-16T05:14:00.293Z,62.37
2022-11-16T05:17:01.784Z,62.28
2022-11-16T05:20:22.310Z,62.39
2022-11-16T05:23:42.123Z,62.52
2022-11-16T05:26:43.676Z,62.43
2022-11-16T05:29:46.025Z,62.40
2022-11-16T05:32:47.639Z,62.38
2022-11-16T05:35:52.277Z,62.56
2022-11-16T05:38:56.232Z,62.38
2022-11-16T05:41:58.278Z,62.40
2022-11-16T05:44:59.880Z,62.56
2022-11-16T05:48:01.532Z,62.53
2022-11-16T05:51:03.187Z,62.57
2022-11-16T05:54:05.455Z,62.66
2022-11-16T05:57:07.004Z,62.52
2022-11-16T06:00:09.188Z,62.71
2022-11-16T06:03:10.785Z,62.61
2022-11-16T06:06:12.450Z,62.60
2022-11-16T06:09:14.462Z,62.77
2022-11-16T06:12:16.379Z,62.60
2022-11-16T06:15:17.970Z,62.69
2022-11-16T06:18:19.755Z,62.81
2022-11-16T06:21:21.303Z,62.90
2022-11-16T06:24:22.843Z,62.86
2022-11-16T06:27:24.363Z,62.80
2022-11-16T06:30:26.383Z,62.71
2022-11-16T06:33:32.344Z,62.90
2022-11-16T06:36:35.347Z,62.72
2022-11-16T06:39:36.839Z,62.90
2022-11-16T06:42:38.520Z,62.86
2022-11-16T06:45:40.219Z,62.89
2022-11-16T06:48:41.822Z,62.87
2022-11-16T06:51:43.414Z,62.95
2022-11-16T06:54:44.982Z,62.89
2022-11-16T06:57:46.661Z,62.92
2022-11-16T07:00:48.288Z,62.94
2022-11-16T07:03:49.808Z,63.05
2022-11-16T07:06:51.449Z,63.10
2022-11-16T07:09:52.972Z,62.94
2022-11-16T07:12:54.591Z,63.06
2022-11-16T07:16:01.119Z,63.11
2022-11-16T07:19:02.783Z,63.08
2022-11-16T07:22:04.405Z,63.14
2022-11-16T07:25:06.570Z,63.19
2022-11-16T07:28:08.130Z,63.25
2022-11-16T07:31:11.917Z,63.25
2022-11-16T07:34:13.418Z,63.22
2022-11-16T07:37:14.983Z,63.37
2022-11-16T07:40:16.595Z,63.27
2022-11-16T07:43:18.131Z,63.30
2022-11-16T07:46:45.914Z,63.33
2022-11-16T07:49:43.628Z,63.45
2022-11-16T07:52:48.043Z,63.35
2022-11-16T07:55:53.758Z,63.70
2022-11-16T07:58:55.289Z,63.53
2022-11-16T08:01:57.201Z,63.51
2022-11-16T08:04:58.919Z,63.56
2022-11-16T08:08:00.472Z,63.43
2022-11-16T08:11:04.216Z,63.58
2022-11-16T08:14:05.755Z,63.49
2022-11-16T08:17:08.446Z,63.81
2022-11-16T08:20:10.273Z,63.56
2022-11-16T08:23:11.924Z,63.47
2022-11-16T08:26:19.285Z,63.47
2022-11-16T08:29:20.920Z,63.57
2022-11-16T08:32:22.797Z,63.37
2022-11-16T08:35:24.387Z,63.71
2022-11-16T08:38:25.951Z,63.61
2022-11-16T08:41:27.555Z,63.55
2022-11-16T08:44:29.158Z,63.71
2022-11-16T08:47:31.795Z,63.72
2022-11-16T08:50:44.208Z,63.71
2022-11-16T08:53:59.106Z,63.77
2022-11-16T08:57:00.732Z,63.79
2022-11-16T09:00:02.839Z,63.84
2022-11-16T09:03:04.415Z,63.80
2022-11-16T09:06:08.114Z,63.87
2022-11-16T09:09:09.683Z,63.93
2022-11-16T09:12:11.344Z,63.96
2022-11-16T09:15:12.887Z,63.95
2022-11-16T09:18:14.491Z,63.83
2022-11-16T09:21:29.616Z,64.01
2022-11-16T09:24:31.540Z,63.92
2022-11-16T09:27:33.071Z,63.91
2022-11-16T09:30:34.659Z,63.89
2022-11-16T09:33:36.771Z,64.02
2022-11-16T09:36:38.511Z,63.96
2022-11-16T09:39:40.220Z,63.96
2022-11-16T09:43:10.899Z,64.07
2022-11-16T09:46:45.956Z,63.91
2022-11-16T09:49:54.150Z,63.96
2022-11-16T09:53:06.433Z,64.03
2022-11-16T09:56:21.906Z,63.94
2022-11-16T09:59:26.975Z,64.02
2022-11-16T10:02:44.204Z,63.93
2022-11-16T10:05:59.787Z,64.34
2022-11-16T10:09:01.453Z,64.09
2022-11-16T10:12:28.560Z,64.02
2022-11-16T10:15:30.075Z,64.12
2022-11-16T10:18:43.762Z,64.12
2022-11-16T10:22:00.669Z,64.02
2022-11-16T10:25:21.136Z,64.21
2022-11-16T10:28:28.748Z,64.05
2022-11-16T10:31:51.455Z,64.06
2022-11-16T10:35:11.851Z,64.30
2022-11-16T10:38:15.852Z,64.25
2022-11-16T10:41:29.467Z,64.16
2022-11-16T10:44:42.075Z,64.21
2022-11-16T10:48:12.828Z,64.17
2022-11-16T10:51:14.375Z,64.28
2022-11-16T10:54:17.857Z,64.25
2022-11-16T10:57:19.903Z,64.27
2022-11-16T11:00:39.069Z,64.11
2022-11-16T11:03:40.624Z,64.24
2022-11-16T11:06:43.088Z,64.31
2022-11-16T11:09:55.039Z,64.23
2022-11-16T11:13:11.510Z,64.17
2022-11-16T11:16:18.315Z,64.22
2022-11-16T11:19:28.491Z,64.35
2022-11-16T11:22:35.931Z,64.55
2022-11-16T11:25:41.752Z,64.41
2022-11-16T11:28:47.973Z,64.30
2022-11-16T11:31:52.788Z,64.34
2022-11-16T11:34:56.408Z,64.40
2022-11-16T11:38:07.478Z,64.34
2022-11-16T11:41:18.955Z,64.43
2022-11-16T11:44:20.746Z,64.33
2022-11-16T11:51:09.404Z,64.47
2022-11-16T11:54:23.194Z,64.29
2022-11-16T11:57:25.772Z,64.41
2022-11-16T12:00:30.095Z,64.44
2022-11-16T12:04:05.968Z,64.48
2022-11-16T12:07:42.375Z,64.36
2022-11-16T12:10:52.635Z,64.50
2022-11-16T12:14:04.083Z,64.48
2022-11-16T12:17:33.266Z,64.39
2022-11-16T12:20:49.827Z,64.51
2022-11-16T12:24:26.776Z,64.35
2022-11-16T12:27:40.379Z,64.47
2022-11-16T12:31:12.966Z,64.46
2022-11-16T12:34:20.543Z,64.55
2022-11-16T12:37:46.764Z,64.37
2022-11-16T12:41:25.582Z,64.50
2022-11-16T12:44:48.427Z,64.53
2022-11-16T12:48:07.819Z,64.36
2022-11-16T12:51:37.229Z,64.50
2022-11-16T12:58:36.599Z,64.58
2022-11-16T13:01:47.777Z,64.49
2022-11-16T13:05:03.503Z,64.47
2022-11-16T13:08:32.500Z,64.39
2022-11-16T13:11:42.454Z,64.60
2022-11-16T13:14:48.089Z,64.54
2022-11-16T13:17:55.709Z,64.55
2022-11-16T13:21:39.299Z,64.66
2022-11-16T13:24:46.607Z,64.58
2022-11-16T13:27:52.887Z,64.57
2022-11-16T13:31:20.564Z,64.61
2022-11-16T13:34:26.222Z,64.63
2022-11-16T13:37:36.693Z,64.58
2022-11-16T13:40:38.282Z,64.74
2022-11-16T13:43:48.577Z,64.74
2022-11-16T13:46:56.139Z,64.66
2022-11-16T13:50:01.569Z,64.69
2022-11-16T13:56:48.837Z,64.68
2022-11-16T14:00:07.837Z,64.61
2022-11-16T14:03:15.352Z,64.63
2022-11-16T14:06:19.889Z,65.22
2022-11-16T14:09:43.992Z,64.74
2022-11-16T14:12:50.163Z,64.77
2022-11-16T14:16:17.820Z,65.11
2022-11-16T14:19:54.517Z,64.72
2022-11-16T14:23:12.028Z,64.69
2022-11-16T14:26:22.348Z,64.66
2022-11-16T14:29:51.599Z,64.63
2022-11-16T14:32:56.139Z,64.78
2022-11-16T14:35:58.487Z,64.73
2022-11-16T14:39:34.394Z,64.75
2022-11-16T14:43:01.887Z,64.84
2022-11-16T14:46:10.042Z,64.91
2022-11-16T14:49:16.208Z,64.80
2022-11-16T14:52:22.311Z,64.96
2022-11-16T14:55:26.257Z,64.90
2022-11-16T14:58:28.855Z,64.84
2022-11-16T15:01:35.812Z,64.82
2022-11-16T15:04:38.751Z,64.88
2022-11-16T15:07:43.141Z,64.86
2022-11-16T15:10:51.094Z,64.97
2022-11-16T15:13:55.006Z,64.83
2022-11-16T15:16:57.773Z,64.90
2022-11-16T15:20:02.272Z,64.97
2022-11-16T15:23:13.115Z,64.85
2022-11-16T15:26:21.009Z,64.91
2022-11-16T15:29:24.743Z,64.97
2022-11-16T15:32:26.344Z,64.88
2022-11-16T15:35:32.606Z,64.89
2022-11-16T15:38:37.625Z,64.87
2022-11-16T15:41:39.932Z,64.83
2022-11-16T15:44:43.190Z,64.84
2022-11-16T15:47:47.135Z,64.92
2022-11-16T15:51:05.029Z,65.00
2022-11-16T15:54:15.217Z,64.96
2022-11-16T15:57:18.370Z,64.93
2022-11-16T16:00:23.615Z,64.81
2022-11-16T16:03:28.529Z,64.83
2022-11-16T16:06:56.736Z,65.00
2022-11-16T16:10:13.180Z,65.17
2022-11-16T16:13:27.365Z,64.89
2022-11-16T16:16:37.386Z,64.88
2022-11-16T16:19:43.058Z,64.76
2022-11-16T16:22:45.185Z,64.92
2022-11-16T16:25:50.482Z,64.89
2022-11-16T16:28:52.459Z,64.77
2022-11-16T16:31:55.468Z,64.86
2022-11-16T16:35:03.104Z,64.64
2022-11-16T16:38:13.127Z,64.78
2022-11-16T16:41:23.788Z,64.81
2022-11-16T16:44:25.953Z,64.78
2022-11-16T16:47:27.586Z,64.76
2022-11-16T16:50:29.305Z,64.80
2022-11-16T16:53:30.945Z,64.93
2022-11-16T16:56:32.502Z,64.91
2022-11-16T16:59:34.039Z,64.83
2022-11-16T17:02:37.336Z,64.81
2022-11-16T17:05:39.030Z,64.83
2022-11-16T17:08:40.583Z,64.92
2022-11-16T17:11:42.113Z,64.83
2022-11-16T17:14:51.273Z,64.98
2022-11-16T17:17:53.030Z,64.92
2022-11-16T17:20:54.588Z,64.87
2022-11-16T17:23:56.629Z,64.98
2022-11-16T17:26:58.162Z,64.86
2022-11-16T17:30:00.072Z,65.08
2022-11-16T17:33:01.669Z,64.99
2022-11-16T17:36:04.880Z,64.96
2022-11-16T17:39:06.434Z,65.08
2022-11-16T17:42:07.991Z,64.98
2022-11-16T17:45:10.018Z,64.90
2022-11-16T17:48:11.615Z,65.03
2022-11-16T17:51:15.865Z,65.04
2022-11-16T17:54:17.433Z,65.13
2022-11-16T17:57:18.949Z,65.06
2022-11-16T18:00:20.611Z,65.16
2022-11-16T18:03:24.120Z,65.15
2022-11-16T18:06:26.293Z,65.43
2022-11-16T18:09:27.824Z,65.07
2022-11-16T18:12:29.391Z,65.02
2022-11-16T18:15:39.232Z,65.01
2022-11-16T18:18:44.946Z,65.05
2022-11-16T18:21:46.922Z,65.15
2022-11-16T18:24:50.717Z,65.20
2022-11-16T18:27:53.953Z,65.12
2022-11-16T18:31:05.700Z,65.09
2022-11-16T18:34:07.294Z,65.14
2022-11-16T18:37:09.165Z,65.14
2022-11-16T18:40:12.218Z,65.08
2022-11-16T18:43:13.780Z,65.11
2022-11-16T18:46:15.304Z,65.22
2022-11-16T18:49:16.891Z,65.13
2022-11-16T18:52:18.464Z,65.20
2022-11-16T18:55:20.058Z,65.25
2022-11-16T18:58:43.647Z,65.28
2022-11-16T19:01:43.516Z,65.11
2022-11-16T19:04:45.124Z,65.24
2022-11-16T19:07:46.667Z,65.07
2022-11-16T19:10:48.216Z,65.46
2022-11-16T19:14:03.884Z,65.39
2022-11-16T19:17:05.790Z,65.42
2022-11-16T19:20:07.996Z,65.40
2022-11-16T19:23:09.560Z,65.39
2022-11-16T19:26:12.964Z,65.22
2022-11-16T19:29:14.763Z,65.31
2022-11-16T19:32:16.343Z,65.32
2022-11-16T19:35:17.957Z,65.05
2022-11-16T19:38:19.502Z,65.24
2022-11-16T19:41:22.605Z,65.32
2022-11-16T19:44:24.292Z,65.38
2022-11-16T19:47:26.466Z,65.23
2022-11-16T19:50:28.071Z,65.37
2022-11-16T19:53:29.591Z,65.32
2022-11-16T19:56:31.415Z,65.34
2022-11-16T19:59:33.006Z,65.34
2022-11-16T20:02:36.519Z,65.34
2022-11-16T20:05:38.114Z,65.28
2022-11-16T20:08:41.903Z,65.24
2022-11-16T20:11:43.536Z,65.31
2022-11-16T20:14:45.144Z,65.32
2022-11-16T20:17:46.832Z,65.34
2022-11-16T20:20:48.336Z,65.23
2022-11-16T20:23:53.685Z,65.36
2022-11-16T20:26:55.198Z,65.35
2022-11-16T20:29:56.780Z,65.37
2022-11-16T20:32:58.460Z,65.32
2022-11-16T20:36:05.315Z,65.29
2022-11-16T20:39:07.487Z,65.30
2022-11-16T20:42:09.020Z,65.26
2022-11-16T20:45:11.195Z,65.37
2022-11-16T20:48:12.719Z,65.34
2022-11-16T20:51:17.095Z,65.30
2022-11-16T20:54:18.674Z,65.40
2022-11-16T20:57:20.173Z,65.39
2022-11-16T21:00:21.848Z,65.36
2022-11-16T21:03:23.404Z,65.26
2022-11-16T21:06:26.204Z,65.31
2022-11-16T21:09:28.002Z,65.37
2022-11-16T21:12:48.208Z,65.28
2022-11-16T21:16:01.486Z,65.35
2022-11-16T21:19:03.711Z,65.29
2022-11-16T21:22:05.231Z,65.45
2022-11-16T21:25:06.996Z,65.35
2022-11-16T21:28:08.590Z,65.31
2022-11-16T21:31:12.651Z,65.08
2022-11-16T21:34:14.184Z,65.30
2022-11-16T21:37:15.732Z,65.11
2022-11-16T21:40:17.720Z,65.20
2022-11-16T21:43:19.503Z,65.31
2022-11-16T21:46:23.351Z,65.33
2022-11-16T21:49:24.950Z,65.34
2022-11-16T21:52:26.543Z,65.33
2022-11-16T21:55:28.269Z,65.26
2022-11-16T21:58:29.823Z,65.33
2022-11-16T22:01:51.401Z,65.27
2022-11-16T22:05:11.280Z,65.33
2022-11-16T22:08:12.876Z,65.23
2022-11-16T22:11:15.493Z,65.29
2022-11-16T22:14:17.119Z,65.30
2022-11-16T22:17:18.641Z,65.26
2022-11-16T22:20:20.936Z,65.38
2022-11-16T22:23:33.786Z,65.46
2022-11-16T22:26:35.562Z,65.39
2022-11-16T22:29:37.089Z,65.30
2022-11-16T22:32:38.593Z,65.20
2022-11-16T22:35:40.656Z,65.32
2022-11-16T22:38:42.187Z,65.27
2022-11-16T22:41:43.715Z,65.22
2022-11-16T22:44:45.275Z,65.14
2022-11-16T22:47:49.614Z,65.24
2022-11-16T22:51:05.719Z,65.38
2022-11-16T22:54:07.414Z,65.17
2022-11-16T22:57:08.969Z,65.07
2022-11-16T23:00:11.166Z,65.28
2022-11-16T23:03:12.851Z,65.24
2022-11-16T23:06:14.837Z,65.33
2022-11-16T23:09:16.348Z,65.22
2022-11-16T23:12:36.440Z,65.29
2022-11-16T23:15:49.873Z,65.18
2022-11-16T23:18:51.544Z,65.20
2022-11-16T23:22:11.668Z,65.31
2022-11-16T23:25:32.098Z,65.17
2022-11-16T23:28:33.742Z,65.13
2022-11-16T23:31:35.979Z,65.22
2022-11-16T23:34:37.523Z,65.11
2022-11-16T23:37:59.081Z,65.18
2022-11-16T23:41:20.627Z,65.08
2022-11-16T23:44:22.165Z,65.17
2022-11-16T23:47:23.875Z,65.13
2022-11-16T23:50:25.476Z,65.23
2022-11-16T23:53:27.004Z,65.21
2022-11-16T23:56:28.866Z,65.24
2022-11-16T23:59:30.466Z,65.26
